createdAt,value
2023-06-17T00:01:11.169Z,1012.26
2023-06-17T00:03:26.621Z,1012.28
2023-06-17T00:05:41.281Z,1012.24
2023-06-17T00:07:57.863Z,1012.22
2023-06-17T00:10:12.319Z,1012.25
2023-06-17T00:12:33.070Z,1012.19
2023-06-17T00:14:49.620Z,1012.14
2023-06-17T00:17:07.671Z,1012.14
2023-06-17T00:19:28.257Z,1012.15
2023-06-17T00:21:46.311Z,1012.12
2023-06-17T00:24:04.550Z,1012.09
2023-06-17T00:26:22.424Z,1012.07
2023-06-17T00:28:40.518Z,1012.06
2023-06-17T00:30:58.744Z,1012.09
2023-06-17T00:33:17.722Z,1012.15
2023-06-17T00:35:35.818Z,1012.17
2023-06-17T00:37:48.927Z,1012.12
2023-06-17T00:40:06.958Z,1012.08
2023-06-17T00:42:27.591Z,1012.04
2023-06-17T00:44:48.210Z,1012.06
2023-06-17T00:47:03.848Z,1011.99
2023-06-17T00:49:20.316Z,1011.93
2023-06-17T00:51:40.922Z,1011.94
2023-06-17T00:53:58.957Z,1012.00
2023-06-17T00:56:17.069Z,1012.02
2023-06-17T00:58:32.718Z,1012.03
2023-06-17T01:00:50.800Z,1012.04
2023-06-17T01:03:09.035Z,1012.06
2023-06-17T01:05:30.068Z,1012.06
2023-06-17T01:07:48.170Z,1012.04
2023-06-17T01:10:04.742Z,1012.08
2023-06-17T01:12:19.259Z,1012.09
2023-06-17T01:14:34.876Z,1012.05
2023-06-17T01:16:53.013Z,1012.01
2023-06-17T01:19:10.861Z,1012.05
2023-06-17T01:21:24.168Z,1012.05
2023-06-17T01:23:42.552Z,1012.10
2023-06-17T01:26:00.387Z,1012.16
2023-06-17T01:28:19.826Z,1012.11
2023-06-17T01:30:38.879Z,1012.08
2023-06-17T01:32:56.940Z,1012.06
2023-06-17T01:35:15.015Z,1012.06
2023-06-17T01:37:33.221Z,1012.08
2023-06-17T01:39:51.232Z,1012.07
2023-06-17T01:42:09.929Z,1012.08
2023-06-17T01:44:27.994Z,1012.02
2023-06-17T01:46:45.796Z,1011.99
2023-06-17T01:49:03.865Z,1011.99
2023-06-17T01:51:23.091Z,1012.00
2023-06-17T01:53:40.314Z,1011.97
2023-06-17T01:55:58.373Z,1011.97
2023-06-17T01:58:16.746Z,1011.96
2023-06-17T02:00:35.921Z,1011.97
2023-06-17T02:02:54.105Z,1011.93
2023-06-17T02:05:13.183Z,1011.95
2023-06-17T02:07:30.967Z,1011.96
2023-06-17T02:09:47.404Z,1011.92
2023-06-17T02:12:05.824Z,1011.89
2023-06-17T02:14:23.997Z,1011.88
2023-06-17T02:16:42.014Z,1011.91
2023-06-17T02:18:57.619Z,1011.91
2023-06-17T02:21:13.194Z,1011.87
2023-06-17T02:23:28.833Z,1011.90
2023-06-17T02:25:46.529Z,1011.98
2023-06-17T02:28:04.906Z,1011.96
2023-06-17T02:30:23.119Z,1011.90
2023-06-17T02:32:40.766Z,1011.91
2023-06-17T02:34:58.985Z,1011.87
2023-06-17T02:37:17.237Z,1011.85
2023-06-17T02:39:32.883Z,1011.83
2023-06-17T02:41:50.634Z,1011.85
2023-06-17T02:44:11.743Z,1011.89
2023-06-17T02:46:29.526Z,1011.85
2023-06-17T02:48:45.223Z,1011.83
2023-06-17T02:51:03.294Z,1011.88
2023-06-17T02:53:21.076Z,1011.88
2023-06-17T02:55:39.665Z,1011.85
2023-06-17T02:57:57.247Z,1011.85
2023-06-17T03:00:15.828Z,1011.87
2023-06-17T03:02:33.880Z,1011.90
2023-06-17T03:04:51.742Z,1011.90
2023-06-17T03:07:09.654Z,1011.91
2023-06-17T03:09:27.679Z,1011.85
2023-06-17T03:11:46.314Z,1011.85
2023-06-17T03:14:01.321Z,1011.82
2023-06-17T03:16:16.996Z,1011.80
2023-06-17T03:18:35.024Z,1011.77
2023-06-17T03:20:53.602Z,1011.82
2023-06-17T03:23:11.660Z,1011.80
2023-06-17T03:25:26.060Z,1011.80
2023-06-17T03:27:44.203Z,1011.82
2023-06-17T03:30:01.966Z,1011.81
2023-06-17T03:32:20.088Z,1011.83
2023-06-17T03:34:35.643Z,1011.84
2023-06-17T03:36:53.888Z,1011.83
2023-06-17T03:39:11.855Z,1011.82
2023-06-17T03:41:26.366Z,1011.85
2023-06-17T03:43:44.467Z,1011.88
2023-06-17T03:46:05.027Z,1011.85
2023-06-17T03:48:20.111Z,1011.83
2023-06-17T03:50:35.526Z,1011.87
2023-06-17T03:52:53.290Z,1011.86
2023-06-17T03:55:11.434Z,1011.90
2023-06-17T03:57:29.460Z,1011.86
2023-06-17T03:59:47.539Z,1011.88
2023-06-17T04:02:08.697Z,1011.93
2023-06-17T04:04:23.735Z,1012.00
2023-06-17T04:06:38.313Z,1011.98
2023-06-17T04:08:53.903Z,1012.00
2023-06-17T04:11:09.485Z,1012.02
2023-06-17T04:13:25.058Z,1011.99
2023-06-17T04:15:39.635Z,1011.97
2023-06-17T04:17:58.595Z,1011.95
2023-06-17T04:20:13.454Z,1011.94
2023-06-17T04:22:28.904Z,1011.94
2023-06-17T04:24:47.132Z,1011.95
2023-06-17T04:27:02.603Z,1012.01
2023-06-17T04:29:19.149Z,1012.06
2023-06-17T04:31:37.226Z,1012.02
2023-06-17T04:33:55.328Z,1012.01
2023-06-17T04:36:13.383Z,1012.02
2023-06-17T04:38:31.556Z,1012.03
2023-06-17T04:40:49.914Z,1012.04
2023-06-17T04:43:05.232Z,1012.04
2023-06-17T04:45:23.641Z,1012.02
2023-06-17T04:47:39.262Z,1012.05
2023-06-17T04:49:54.923Z,1012.05
2023-06-17T04:52:10.397Z,1012.04
2023-06-17T04:54:25.986Z,1012.04
2023-06-17T04:56:44.038Z,1012.08
2023-06-17T04:58:59.630Z,1012.05
2023-06-17T05:01:15.662Z,1012.05
2023-06-17T05:03:33.523Z,1012.05
2023-06-17T05:05:48.876Z,1012.06
2023-06-17T05:08:04.447Z,1012.02
2023-06-17T05:10:25.126Z,1012.08
2023-06-17T05:12:40.634Z,1012.10
2023-06-17T05:14:58.715Z,1012.14
2023-06-17T05:17:16.798Z,1012.14
2023-06-17T05:19:31.453Z,1012.14
2023-06-17T05:21:46.972Z,1012.16
2023-06-17T05:24:00.700Z,1012.18
2023-06-17T05:26:12.166Z,1012.17
2023-06-17T05:28:27.698Z,1012.18
2023-06-17T05:30:43.346Z,1012.16
2023-06-17T05:32:58.974Z,1012.15
2023-06-17T05:35:12.459Z,1012.18
2023-06-17T05:37:28.058Z,1012.13
2023-06-17T05:39:43.640Z,1012.17
2023-06-17T05:41:59.219Z,1012.08
2023-06-17T05:44:14.805Z,1012.09
2023-06-17T05:46:30.484Z,1012.13
2023-06-17T05:48:46.008Z,1012.16
2023-06-17T05:51:01.602Z,1012.21
2023-06-17T05:53:17.150Z,1012.20
2023-06-17T05:55:32.709Z,1012.23
2023-06-17T05:57:48.306Z,1012.22
2023-06-17T06:00:01.925Z,1012.27
2023-06-17T06:02:17.465Z,1012.27
2023-06-17T06:04:33.058Z,1012.31
2023-06-17T06:06:46.711Z,1012.30
2023-06-17T06:09:02.255Z,1012.33
2023-06-17T06:11:19.222Z,1012.37
2023-06-17T06:13:33.757Z,1012.36
2023-06-17T06:15:46.010Z,1012.37
2023-06-17T06:18:01.622Z,1012.36
2023-06-17T06:20:19.951Z,1012.36
2023-06-17T06:22:35.273Z,1012.40
2023-06-17T06:24:50.861Z,1012.42
2023-06-17T06:27:06.461Z,1012.43
2023-06-17T06:29:27.041Z,1012.43
2023-06-17T06:31:45.097Z,1012.47
2023-06-17T06:33:59.677Z,1012.44
2023-06-17T06:36:17.727Z,1012.43
2023-06-17T06:38:33.455Z,1012.45
2023-06-17T06:40:48.920Z,1012.48
2023-06-17T06:43:04.511Z,1012.51
2023-06-17T06:45:21.111Z,1012.47
2023-06-17T06:47:41.695Z,1012.54
2023-06-17T06:49:56.254Z,1012.50
2023-06-17T06:52:11.850Z,1012.53
2023-06-17T06:54:26.449Z,1012.57
2023-06-17T06:56:40.127Z,1012.54
2023-06-17T06:58:58.129Z,1012.54
2023-06-17T07:01:11.308Z,1012.53
2023-06-17T07:03:27.825Z,1012.57
2023-06-17T07:05:45.999Z,1012.56
2023-06-17T07:08:04.088Z,1012.62
2023-06-17T07:10:19.724Z,1012.59
2023-06-17T07:12:37.651Z,1012.61
2023-06-17T07:14:53.231Z,1012.58
2023-06-17T07:17:11.416Z,1012.57
2023-06-17T07:19:24.980Z,1012.57
2023-06-17T07:21:40.504Z,1012.55
2023-06-17T07:23:54.178Z,1012.58
2023-06-17T07:26:09.674Z,1012.51
2023-06-17T07:28:25.232Z,1012.52
2023-06-17T07:30:40.918Z,1012.54
2023-06-17T07:32:56.778Z,1012.52
2023-06-17T07:35:13.284Z,1012.50
2023-06-17T07:37:28.869Z,1012.45
2023-06-17T07:39:44.448Z,1012.47
2023-06-17T07:41:56.564Z,1012.51
2023-06-17T07:44:12.112Z,1012.48
2023-06-17T07:46:25.778Z,1012.51
2023-06-17T07:48:39.359Z,1012.50
2023-06-17T07:50:52.860Z,1012.45
2023-06-17T07:53:06.492Z,1012.42
2023-06-17T07:55:22.049Z,1012.46
2023-06-17T07:57:34.115Z,1012.47
2023-06-17T07:59:46.217Z,1012.47
2023-06-17T08:01:58.349Z,1012.43
2023-06-17T08:04:10.505Z,1012.41
2023-06-17T08:06:23.967Z,1012.42
2023-06-17T08:08:37.076Z,1012.38
2023-06-17T08:10:50.626Z,1012.34
2023-06-17T08:13:03.962Z,1012.36
2023-06-17T08:15:17.586Z,1012.27
2023-06-17T08:17:31.271Z,1012.31
2023-06-17T08:19:44.763Z,1012.31
2023-06-17T08:21:58.366Z,1012.32
2023-06-17T08:24:12.955Z,1012.30
2023-06-17T08:26:26.618Z,1012.34
2023-06-17T08:28:38.608Z,1012.27
2023-06-17T08:30:52.212Z,1012.28
2023-06-17T08:33:05.332Z,1012.37
2023-06-17T08:35:18.891Z,1012.34
2023-06-17T08:37:34.485Z,1012.35
2023-06-17T08:39:52.529Z,1012.29
2023-06-17T08:42:06.120Z,1012.31
2023-06-17T08:44:18.224Z,1012.31
2023-06-17T08:46:30.505Z,1012.33
2023-06-17T08:48:43.946Z,1012.35
2023-06-17T08:50:56.085Z,1012.35
2023-06-17T08:53:10.188Z,1012.35
2023-06-17T08:55:23.261Z,1012.33
2023-06-17T08:57:36.372Z,1012.37
2023-06-17T08:59:48.491Z,1012.34
2023-06-17T09:02:01.617Z,1012.35
2023-06-17T09:04:14.671Z,1012.34
2023-06-17T09:06:26.762Z,1012.35
2023-06-17T09:08:41.333Z,1012.32
2023-06-17T09:10:54.921Z,1012.30
2023-06-17T09:13:07.985Z,1012.35
2023-06-17T09:15:22.565Z,1012.34
2023-06-17T09:17:36.228Z,1012.35
2023-06-17T09:19:49.756Z,1012.35
2023-06-17T09:22:01.870Z,1012.37
2023-06-17T09:24:15.460Z,1012.41
2023-06-17T09:26:27.509Z,1012.38
2023-06-17T09:28:40.105Z,1012.35
2023-06-17T09:30:51.640Z,1012.34
2023-06-17T09:33:04.819Z,1012.39
2023-06-17T09:35:16.816Z,1012.35
2023-06-17T09:37:28.896Z,1012.36
2023-06-17T09:39:40.990Z,1012.42
2023-06-17T09:41:54.028Z,1012.38
2023-06-17T09:44:06.117Z,1012.38
2023-06-17T09:46:19.211Z,1012.33
2023-06-17T09:48:31.284Z,1012.34
2023-06-17T09:50:44.304Z,1012.30
2023-06-17T09:52:56.408Z,1012.30
2023-06-17T09:55:10.019Z,1012.29
2023-06-17T09:57:25.609Z,1012.32
2023-06-17T09:59:37.658Z,1012.30
2023-06-17T10:01:49.723Z,1012.31
2023-06-17T10:04:04.346Z,1012.25
2023-06-17T10:06:15.388Z,1012.29
2023-06-17T10:08:28.952Z,1012.22
2023-06-17T10:10:41.042Z,1012.22
2023-06-17T10:12:56.628Z,1012.15
2023-06-17T10:15:08.693Z,1012.14
2023-06-17T10:17:22.298Z,1012.10
2023-06-17T10:19:35.893Z,1012.04
2023-06-17T10:21:49.479Z,1012.06
2023-06-17T10:24:03.126Z,1011.98
2023-06-17T10:26:15.152Z,1011.95
2023-06-17T10:28:28.749Z,1011.94
2023-06-17T10:30:42.294Z,1011.97
2023-06-17T10:46:52.345Z,1011.94
2023-06-17T10:49:08.113Z,1011.95
2023-06-17T11:08:24.488Z,1011.96
2023-06-17T11:32:11.072Z,1012.94
2023-06-17T11:45:20.740Z,1013.08
2023-06-17T11:54:02.121Z,1012.86
2023-06-17T11:58:44.470Z,1012.82
2023-06-17T12:03:19.742Z,1012.62
2023-06-17T12:05:40.950Z,1012.57
2023-06-17T12:08:14.928Z,1012.54
2023-06-17T12:10:37.538Z,1012.57
2023-06-17T12:12:58.775Z,1012.59
2023-06-17T12:15:36.719Z,1012.51
2023-06-17T12:19:06.234Z,1012.45
2023-06-17T12:46:15.925Z,1012.35
2023-06-17T12:49:47.211Z,1012.34
2023-06-17T12:52:33.629Z,1012.38
2023-06-17T12:54:55.289Z,1012.40
2023-06-17T12:57:15.682Z,1012.36
2023-06-17T12:59:29.808Z,1012.27
2023-06-17T13:01:47.394Z,1012.21
2023-06-17T13:04:09.512Z,1012.17
2023-06-17T13:06:31.564Z,1012.18
2023-06-17T13:10:41.043Z,1012.19
2023-06-17T13:15:18.434Z,1012.18
2023-06-17T13:17:19.998Z,1012.12
2023-06-17T13:20:34.947Z,1012.08
2023-06-17T13:22:53.986Z,1011.99
2023-06-17T13:25:10.591Z,1011.96
2023-06-17T13:27:31.168Z,1011.98
2023-06-17T13:29:49.153Z,1011.93
2023-06-17T13:32:10.009Z,1011.94
2023-06-17T13:35:31.273Z,1011.90
2023-06-17T13:39:49.859Z,1011.81
2023-06-17T13:42:09.028Z,1011.81
2023-06-17T13:44:29.605Z,1011.80
2023-06-17T13:46:51.201Z,1011.78
2023-06-17T13:49:08.821Z,1011.79
2023-06-17T13:51:27.334Z,1011.76
2023-06-17T13:53:44.020Z,1011.80
2023-06-17T13:56:00.632Z,1011.80
2023-06-17T13:58:19.954Z,1011.80
2023-06-17T14:00:39.430Z,1011.82
2023-06-17T14:03:08.575Z,1011.86
2023-06-17T14:05:30.181Z,1011.86
2023-06-17T14:07:50.356Z,1011.85
2023-06-17T14:10:04.888Z,1011.86
2023-06-17T14:12:21.465Z,1011.87
2023-06-17T14:14:42.424Z,1011.86
2023-06-17T14:17:00.473Z,1011.84
2023-06-17T14:19:18.505Z,1011.89
2023-06-17T14:21:37.044Z,1011.89
2023-06-17T14:23:57.239Z,1011.91
2023-06-17T14:26:17.854Z,1011.91
2023-06-17T14:28:35.929Z,1011.96
2023-06-17T14:30:52.511Z,1011.93
2023-06-17T14:33:12.255Z,1011.95
2023-06-17T14:35:32.493Z,1011.94
2023-06-17T14:37:49.409Z,1011.94
2023-06-17T14:40:16.934Z,1011.97
2023-06-17T14:42:49.271Z,1011.98
2023-06-17T14:45:05.951Z,1011.99
2023-06-17T14:47:24.257Z,1011.95
2023-06-17T14:50:36.558Z,1011.92
2023-06-17T14:52:55.286Z,1011.91
2023-06-17T14:55:14.706Z,1011.88
2023-06-17T14:57:58.921Z,1011.89
2023-06-17T15:03:41.690Z,1011.86
2023-06-17T15:07:26.619Z,1011.86
2023-06-17T15:11:01.588Z,1011.82
2023-06-17T15:16:38.028Z,1011.86
2023-06-17T15:19:08.967Z,1011.93
2023-06-17T15:21:33.526Z,1011.93
2023-06-17T15:58:51.529Z,1011.91
2023-06-17T16:27:14.970Z,1011.90
2023-06-17T17:05:47.112Z,1012.01
2023-06-17T17:59:19.457Z,1012.05
2023-06-17T18:10:43.240Z,1012.21
2023-06-17T18:12:37.623Z,1012.21
2023-06-17T18:14:53.199Z,1012.17
2023-06-17T18:29:48.809Z,1012.17
2023-06-17T19:17:21.769Z,1012.46
2023-06-17T19:54:09.301Z,1012.54
2023-06-17T19:56:24.720Z,1012.55
2023-06-17T19:58:42.854Z,1012.57
2023-06-17T20:01:03.398Z,1012.53
2023-06-17T20:03:20.049Z,1012.51
2023-06-17T20:05:33.563Z,1012.50
2023-06-17T20:07:51.606Z,1012.59
2023-06-17T20:10:09.732Z,1012.61
2023-06-17T20:12:24.284Z,1012.57
2023-06-17T20:14:38.878Z,1012.59
2023-06-17T20:16:54.477Z,1012.63
2023-06-17T20:19:09.052Z,1012.69
2023-06-17T20:21:28.142Z,1012.74
2023-06-17T20:23:43.736Z,1012.70
2023-06-17T20:25:59.624Z,1012.71
2023-06-17T20:28:16.227Z,1012.76
2023-06-17T20:30:30.767Z,1012.73
2023-06-17T20:32:45.469Z,1012.83
2023-06-17T20:35:01.966Z,1012.82
2023-06-17T20:37:22.526Z,1012.82
2023-06-17T20:39:41.656Z,1012.81
2023-06-17T20:41:59.728Z,1012.87
2023-06-17T20:44:16.284Z,1012.88
2023-06-17T20:46:31.903Z,1012.85
2023-06-17T20:48:50.067Z,1012.80
2023-06-17T20:51:10.650Z,1012.90
2023-06-17T20:53:29.721Z,1012.85
2023-06-17T20:55:50.314Z,1012.85
2023-06-17T20:58:08.391Z,1012.91
2023-06-17T21:00:26.419Z,1012.90
2023-06-17T21:02:45.589Z,1012.89
2023-06-17T21:05:03.598Z,1012.85
2023-06-17T21:07:21.635Z,1012.86
2023-06-17T21:09:39.741Z,1012.86
2023-06-17T21:11:57.826Z,1012.83
2023-06-17T21:14:16.403Z,1012.88
2023-06-17T21:16:31.525Z,1012.88
2023-06-17T21:18:49.541Z,1012.90
2023-06-17T21:21:04.158Z,1012.89
2023-06-17T21:23:22.233Z,1012.90
2023-06-17T21:25:42.895Z,1012.89
2023-06-17T21:28:03.489Z,1012.90
2023-06-17T21:30:22.276Z,1012.93
2023-06-17T21:32:37.076Z,1012.91
2023-06-17T21:34:55.162Z,1012.86
2023-06-17T21:37:14.289Z,1012.91
2023-06-17T21:39:29.827Z,1012.93
2023-06-17T21:41:47.937Z,1012.90
2023-06-17T21:44:06.022Z,1012.87
2023-06-17T21:46:21.683Z,1012.94
2023-06-17T21:48:37.239Z,1012.94
2023-06-17T21:50:55.286Z,1012.94
2023-06-17T21:53:13.363Z,1013.00
2023-06-17T21:55:29.908Z,1013.00
2023-06-17T21:57:45.506Z,1012.99
2023-06-17T22:00:01.141Z,1012.95
2023-06-17T22:02:17.716Z,1012.97
2023-06-17T22:04:33.296Z,1012.93
2023-06-17T22:06:49.871Z,1012.97
2023-06-17T22:09:10.438Z,1012.97
2023-06-17T22:11:25.058Z,1012.94
2023-06-17T22:13:40.621Z,1012.98
2023-06-17T22:15:58.768Z,1012.93
2023-06-17T22:18:16.860Z,1012.93
2023-06-17T22:20:37.403Z,1012.92
2023-06-17T22:22:51.983Z,1012.93
2023-06-17T22:25:11.122Z,1012.93
2023-06-17T22:27:26.678Z,1012.96
2023-06-17T22:29:43.252Z,1012.93
2023-06-17T22:31:57.963Z,1012.93
2023-06-17T22:34:14.380Z,1012.99
2023-06-17T22:36:27.994Z,1012.96
2023-06-17T22:38:43.583Z,1012.94
2023-06-17T22:40:59.234Z,1012.94
2023-06-17T22:43:14.824Z,1012.96
2023-06-17T22:45:32.991Z,1012.91
2023-06-17T22:47:51.084Z,1012.96
2023-06-17T22:50:06.645Z,1012.99
2023-06-17T22:52:24.725Z,1012.97
2023-06-17T22:54:39.325Z,1012.96
2023-06-17T22:56:57.427Z,1012.91
2023-06-17T22:59:16.354Z,1012.93
2023-06-17T23:01:36.093Z,1012.99
2023-06-17T23:03:54.153Z,1012.95
2023-06-17T23:06:12.866Z,1012.98
2023-06-17T23:08:26.901Z,1012.93
2023-06-17T23:10:44.928Z,1012.92
2023-06-17T23:13:00.526Z,1012.93
2023-06-17T23:15:21.137Z,1012.97
2023-06-17T23:17:39.326Z,1012.96
2023-06-17T23:19:53.801Z,1012.97
2023-06-17T23:22:11.462Z,1012.98
2023-06-17T23:24:26.957Z,1013.02
2023-06-17T23:26:45.055Z,1013.02
2023-06-17T23:29:03.123Z,1013.06
2023-06-17T23:31:21.218Z,1013.06
2023-06-17T23:33:34.317Z,1013.08
2023-06-17T23:35:49.928Z,1013.08
2023-06-17T23:38:06.553Z,1013.05
2023-06-17T23:40:21.357Z,1012.99
2023-06-17T23:42:36.680Z,1012.96
2023-06-17T23:44:54.770Z,1012.96
2023-06-17T23:47:09.318Z,1012.97
2023-06-17T23:49:24.898Z,1012.98
2023-06-17T23:51:42.975Z,1012.92
2023-06-17T23:53:56.579Z,1012.88
2023-06-17T23:56:12.193Z,1012.89
2023-06-17T23:58:27.749Z,1012.87
